sensor_id;sensor_type;location;lat;lon;timestamp;P1;durP1;ratioP1;P2;durP2;ratioP2
55114;SDS011;41010;53.252;5.786;2022-12-10T00:01:42;308.80;;;43.45;;
55114;SDS011;41010;53.252;5.786;2022-12-10T00:04:10;353.13;;;45.88;;
55114;SDS011;41010;53.252;5.786;2022-12-10T00:06:38;342.73;;;44.95;;
55114;SDS011;41010;53.252;5.786;2022-12-10T00:09:06;401.20;;;51.33;;
55114;SDS011;41010;53.252;5.786;2022-12-10T00:11:35;358.30;;;48.78;;
55114;SDS011;41010;53.252;5.786;2022-12-10T00:14:02;278.73;;;45.90;;
55114;SDS011;41010;53.252;5.786;2022-12-10T00:16:29;378.92;;;50.80;;
55114;SDS011;41010;53.252;5.786;2022-12-10T00:18:58;368.45;;;51.08;;
55114;SDS011;41010;53.252;5.786;2022-12-10T00:21:26;312.77;;;52.38;;
55114;SDS011;41010;53.252;5.786;2022-12-10T00:23:53;281.83;;;48.42;;
55114;SDS011;41010;53.252;5.786;2022-12-10T00:26:22;292.33;;;51.67;;
55114;SDS011;41010;53.252;5.786;2022-12-10T00:28:51;291.27;;;52.28;;
55114;SDS011;41010;53.252;5.786;2022-12-10T00:31:19;283.08;;;48.92;;
55114;SDS011;41010;53.252;5.786;2022-12-10T00:33:47;283.15;;;54.35;;
55114;SDS011;41010;53.252;5.786;2022-12-10T00:36:15;287.60;;;58.17;;
55114;SDS011;41010;53.252;5.786;2022-12-10T00:38:43;251.95;;;51.10;;
55114;SDS011;41010;53.252;5.786;2022-12-10T00:41:10;249.65;;;49.17;;
55114;SDS011;41010;53.252;5.786;2022-12-10T00:43:38;230.73;;;50.97;;
55114;SDS011;41010;53.252;5.786;2022-12-10T00:46:06;241.50;;;53.22;;
55114;SDS011;41010;53.252;5.786;2022-12-10T00:48:34;234.27;;;54.22;;
55114;SDS011;41010;53.252;5.786;2022-12-10T00:51:02;223.05;;;51.08;;
55114;SDS011;41010;53.252;5.786;2022-12-10T00:53:30;214.95;;;51.28;;
55114;SDS011;41010;53.252;5.786;2022-12-10T00:55:58;211.85;;;52.42;;
55114;SDS011;41010;53.252;5.786;2022-12-10T00:58:26;198.10;;;50.50;;
55114;SDS011;41010;53.252;5.786;2022-12-10T01:00:53;200.52;;;51.97;;
55114;SDS011;41010;53.252;5.786;2022-12-10T01:03:22;213.05;;;52.92;;
55114;SDS011;41010;53.252;5.786;2022-12-10T01:05:49;193.65;;;51.42;;
55114;SDS011;41010;53.252;5.786;2022-12-10T01:08:16;187.57;;;49.33;;
55114;SDS011;41010;53.252;5.786;2022-12-10T01:10:44;178.45;;;48.45;;
55114;SDS011;41010;53.252;5.786;2022-12-10T01:13:12;185.75;;;50.88;;
55114;SDS011;41010;53.252;5.786;2022-12-10T01:15:39;186.75;;;51.63;;
55114;SDS011;41010;53.252;5.786;2022-12-10T01:18:06;192.27;;;50.63;;
55114;SDS011;41010;53.252;5.786;2022-12-10T01:20:36;182.65;;;48.30;;
55114;SDS011;41010;53.252;5.786;2022-12-10T01:23:03;174.02;;;49.08;;
55114;SDS011;41010;53.252;5.786;2022-12-10T01:25:30;189.10;;;49.83;;
55114;SDS011;41010;53.252;5.786;2022-12-10T01:27:57;177.13;;;48.67;;
55114;SDS011;41010;53.252;5.786;2022-12-10T01:30:25;168.02;;;48.50;;
55114;SDS011;41010;53.252;5.786;2022-12-10T01:32:52;163.18;;;46.60;;
55114;SDS011;41010;53.252;5.786;2022-12-10T01:35:19;165.55;;;48.08;;
55114;SDS011;41010;53.252;5.786;2022-12-10T01:37:49;171.88;;;49.13;;
55114;SDS011;41010;53.252;5.786;2022-12-10T01:40:16;162.50;;;46.05;;
55114;SDS011;41010;53.252;5.786;2022-12-10T01:42:43;179.93;;;48.55;;
55114;SDS011;41010;53.252;5.786;2022-12-10T01:45:11;175.32;;;49.28;;
55114;SDS011;41010;53.252;5.786;2022-12-10T01:47:39;157.32;;;47.35;;
55114;SDS011;41010;53.252;5.786;2022-12-10T01:50:07;159.88;;;46.83;;
55114;SDS011;41010;53.252;5.786;2022-12-10T01:52:35;164.60;;;50.90;;
55114;SDS011;41010;53.252;5.786;2022-12-10T01:55:07;154.45;;;46.20;;
55114;SDS011;41010;53.252;5.786;2022-12-10T01:57:34;147.70;;;46.00;;
55114;SDS011;41010;53.252;5.786;2022-12-10T02:00:04;154.55;;;46.60;;
55114;SDS011;41010;53.252;5.786;2022-12-10T02:02:38;152.55;;;46.00;;
55114;SDS011;41010;53.252;5.786;2022-12-10T02:05:13;153.75;;;46.13;;
55114;SDS011;41010;53.252;5.786;2022-12-10T02:07:45;152.38;;;46.45;;
55114;SDS011;41010;53.252;5.786;2022-12-10T02:10:22;163.50;;;45.38;;
55114;SDS011;41010;53.252;5.786;2022-12-10T02:12:53;143.00;;;45.75;;
55114;SDS011;41010;53.252;5.786;2022-12-10T02:15:21;145.88;;;45.10;;
55114;SDS011;41010;53.252;5.786;2022-12-10T02:17:50;147.40;;;43.67;;
55114;SDS011;41010;53.252;5.786;2022-12-10T02:20:19;142.43;;;44.45;;
55114;SDS011;41010;53.252;5.786;2022-12-10T02:22:48;138.88;;;44.20;;
55114;SDS011;41010;53.252;5.786;2022-12-10T02:25:17;145.20;;;43.22;;
55114;SDS011;41010;53.252;5.786;2022-12-10T02:27:47;136.40;;;42.72;;
55114;SDS011;41010;53.252;5.786;2022-12-10T02:30:17;137.95;;;43.63;;
55114;SDS011;41010;53.252;5.786;2022-12-10T02:32:45;128.15;;;42.63;;
55114;SDS011;41010;53.252;5.786;2022-12-10T02:35:14;127.97;;;43.65;;
55114;SDS011;41010;53.252;5.786;2022-12-10T02:37:44;137.40;;;42.90;;
55114;SDS011;41010;53.252;5.786;2022-12-10T02:40:14;125.05;;;40.92;;
55114;SDS011;41010;53.252;5.786;2022-12-10T02:42:42;133.55;;;43.05;;
55114;SDS011;41010;53.252;5.786;2022-12-10T02:45:13;129.90;;;43.42;;
55114;SDS011;41010;53.252;5.786;2022-12-10T02:47:42;136.77;;;42.75;;
55114;SDS011;41010;53.252;5.786;2022-12-10T02:50:09;140.07;;;43.30;;
55114;SDS011;41010;53.252;5.786;2022-12-10T02:52:37;133.10;;;42.60;;
55114;SDS011;41010;53.252;5.786;2022-12-10T02:55:05;133.80;;;41.97;;
55114;SDS011;41010;53.252;5.786;2022-12-10T02:57:34;129.32;;;42.30;;
55114;SDS011;41010;53.252;5.786;2022-12-10T03:00:04;130.98;;;42.95;;
55114;SDS011;41010;53.252;5.786;2022-12-10T03:02:34;127.93;;;42.65;;
55114;SDS011;41010;53.252;5.786;2022-12-10T03:05:08;135.77;;;42.40;;
55114;SDS011;41010;53.252;5.786;2022-12-10T03:07:37;134.32;;;42.85;;
55114;SDS011;41010;53.252;5.786;2022-12-10T03:10:06;145.52;;;43.40;;
55114;SDS011;41010;53.252;5.786;2022-12-10T03:12:37;140.13;;;44.13;;
55114;SDS011;41010;53.252;5.786;2022-12-10T03:15:07;151.95;;;44.20;;
55114;SDS011;41010;53.252;5.786;2022-12-10T03:17:35;188.63;;;45.97;;
55114;SDS011;41010;53.252;5.786;2022-12-10T03:20:03;208.32;;;46.78;;
55114;SDS011;41010;53.252;5.786;2022-12-10T03:22:35;212.85;;;47.63;;
55114;SDS011;41010;53.252;5.786;2022-12-10T03:25:04;242.07;;;50.88;;
55114;SDS011;41010;53.252;5.786;2022-12-10T03:27:32;308.88;;;45.35;;
55114;SDS011;41010;53.252;5.786;2022-12-10T03:29:59;292.75;;;49.97;;
55114;SDS011;41010;53.252;5.786;2022-12-10T03:32:27;290.13;;;47.03;;
55114;SDS011;41010;53.252;5.786;2022-12-10T03:34:56;288.55;;;47.53;;
55114;SDS011;41010;53.252;5.786;2022-12-10T03:37:24;270.25;;;47.25;;
55114;SDS011;41010;53.252;5.786;2022-12-10T03:39:53;337.40;;;48.33;;
55114;SDS011;41010;53.252;5.786;2022-12-10T03:42:21;380.15;;;52.22;;
55114;SDS011;41010;53.252;5.786;2022-12-10T03:44:49;259.25;;;46.95;;
55114;SDS011;41010;53.252;5.786;2022-12-10T03:47:17;240.00;;;45.40;;
55114;SDS011;41010;53.252;5.786;2022-12-10T03:49:44;371.55;;;53.15;;
55114;SDS011;41010;53.252;5.786;2022-12-10T03:52:12;329.80;;;48.92;;
55114;SDS011;41010;53.252;5.786;2022-12-10T03:54:39;388.38;;;51.90;;
55114;SDS011;41010;53.252;5.786;2022-12-10T03:57:07;381.00;;;48.28;;
55114;SDS011;41010;53.252;5.786;2022-12-10T03:59:35;440.65;;;50.45;;
55114;SDS011;41010;53.252;5.786;2022-12-10T04:02:02;387.17;;;48.60;;
55114;SDS011;41010;53.252;5.786;2022-12-10T04:04:30;342.80;;;44.60;;
55114;SDS011;41010;53.252;5.786;2022-12-10T04:06:57;363.40;;;44.67;;
55114;SDS011;41010;53.252;5.786;2022-12-10T04:09:24;406.67;;;44.95;;
55114;SDS011;41010;53.252;5.786;2022-12-10T04:11:54;392.58;;;44.33;;
55114;SDS011;41010;53.252;5.786;2022-12-10T04:14:23;359.50;;;39.50;;
55114;SDS011;41010;53.252;5.786;2022-12-10T04:17:08;306.52;;;39.17;;
55114;SDS011;41010;53.252;5.786;2022-12-10T04:19:35;416.70;;;43.08;;
55114;SDS011;41010;53.252;5.786;2022-12-10T04:22:03;408.23;;;46.17;;
55114;SDS011;41010;53.252;5.786;2022-12-10T04:24:48;478.02;;;44.25;;
55114;SDS011;41010;53.252;5.786;2022-12-10T04:27:34;371.10;;;41.05;;
55114;SDS011;41010;53.252;5.786;2022-12-10T04:30:04;422.45;;;47.28;;
55114;SDS011;41010;53.252;5.786;2022-12-10T04:32:31;382.33;;;42.78;;
55114;SDS011;41010;53.252;5.786;2022-12-10T04:34:59;447.35;;;45.92;;
55114;SDS011;41010;53.252;5.786;2022-12-10T04:37:26;378.63;;;43.47;;
55114;SDS011;41010;53.252;5.786;2022-12-10T04:39:54;415.90;;;42.53;;
55114;SDS011;41010;53.252;5.786;2022-12-10T04:42:21;385.50;;;40.30;;
55114;SDS011;41010;53.252;5.786;2022-12-10T04:44:49;512.97;;;42.17;;
55114;SDS011;41010;53.252;5.786;2022-12-10T04:47:17;459.40;;;42.67;;
55114;SDS011;41010;53.252;5.786;2022-12-10T04:49:45;363.10;;;37.00;;
55114;SDS011;41010;53.252;5.786;2022-12-10T04:52:12;470.38;;;39.47;;
55114;SDS011;41010;53.252;5.786;2022-12-10T04:54:40;353.63;;;33.58;;
55114;SDS011;41010;53.252;5.786;2022-12-10T04:57:07;379.42;;;36.13;;
55114;SDS011;41010;53.252;5.786;2022-12-10T04:59:36;342.60;;;33.40;;
55114;SDS011;41010;53.252;5.786;2022-12-10T05:02:03;402.73;;;35.22;;
55114;SDS011;41010;53.252;5.786;2022-12-10T05:04:32;334.27;;;32.13;;
55114;SDS011;41010;53.252;5.786;2022-12-10T05:06:59;385.70;;;33.33;;
55114;SDS011;41010;53.252;5.786;2022-12-10T05:09:26;291.10;;;28.60;;
55114;SDS011;41010;53.252;5.786;2022-12-10T05:11:54;348.73;;;34.97;;
55114;SDS011;41010;53.252;5.786;2022-12-10T05:14:21;289.40;;;30.02;;
55114;SDS011;41010;53.252;5.786;2022-12-10T05:16:48;380.77;;;32.08;;
55114;SDS011;41010;53.252;5.786;2022-12-10T05:19:16;339.73;;;32.00;;
55114;SDS011;41010;53.252;5.786;2022-12-10T05:21:47;322.80;;;30.00;;
55114;SDS011;41010;53.252;5.786;2022-12-10T05:24:33;281.38;;;29.67;;
55114;SDS011;41010;53.252;5.786;2022-12-10T05:27:00;281.95;;;27.83;;
55114;SDS011;41010;53.252;5.786;2022-12-10T05:29:27;274.35;;;29.52;;
55114;SDS011;41010;53.252;5.786;2022-12-10T05:31:54;255.85;;;27.95;;
55114;SDS011;41010;53.252;5.786;2022-12-10T05:34:22;265.95;;;26.42;;
55114;SDS011;41010;53.252;5.786;2022-12-10T05:36:50;359.65;;;29.58;;
55114;SDS011;41010;53.252;5.786;2022-12-10T05:39:17;295.77;;;29.95;;
55114;SDS011;41010;53.252;5.786;2022-12-10T05:41:45;284.00;;;31.67;;
55114;SDS011;41010;53.252;5.786;2022-12-10T05:44:12;389.65;;;35.67;;
55114;SDS011;41010;53.252;5.786;2022-12-10T05:46:39;334.98;;;29.90;;
55114;SDS011;41010;53.252;5.786;2022-12-10T05:49:07;267.35;;;31.98;;
55114;SDS011;41010;53.252;5.786;2022-12-10T05:51:34;322.13;;;29.98;;
55114;SDS011;41010;53.252;5.786;2022-12-10T05:54:04;338.83;;;29.95;;
55114;SDS011;41010;53.252;5.786;2022-12-10T05:56:31;301.38;;;28.83;;
55114;SDS011;41010;53.252;5.786;2022-12-10T05:59:00;293.05;;;31.17;;
55114;SDS011;41010;53.252;5.786;2022-12-10T06:01:28;246.07;;;29.27;;
55114;SDS011;41010;53.252;5.786;2022-12-10T06:03:56;262.58;;;29.02;;
55114;SDS011;41010;53.252;5.786;2022-12-10T06:06:24;259.23;;;29.48;;
55114;SDS011;41010;53.252;5.786;2022-12-10T06:08:52;273.25;;;26.73;;
55114;SDS011;41010;53.252;5.786;2022-12-10T06:11:21;299.38;;;29.60;;
55114;SDS011;41010;53.252;5.786;2022-12-10T06:13:48;216.05;;;27.55;;
55114;SDS011;41010;53.252;5.786;2022-12-10T06:16:15;284.27;;;28.75;;
55114;SDS011;41010;53.252;5.786;2022-12-10T06:18:43;319.33;;;29.90;;
55114;SDS011;41010;53.252;5.786;2022-12-10T06:21:11;277.88;;;32.25;;
55114;SDS011;41010;53.252;5.786;2022-12-10T06:23:39;252.88;;;28.73;;
55114;SDS011;41010;53.252;5.786;2022-12-10T06:26:07;340.45;;;33.80;;
55114;SDS011;41010;53.252;5.786;2022-12-10T06:28:37;331.15;;;28.70;;
55114;SDS011;41010;53.252;5.786;2022-12-10T06:31:04;235.38;;;28.40;;
55114;SDS011;41010;53.252;5.786;2022-12-10T06:33:32;228.60;;;26.58;;
55114;SDS011;41010;53.252;5.786;2022-12-10T06:35:59;337.65;;;27.38;;
55114;SDS011;41010;53.252;5.786;2022-12-10T06:38:26;305.73;;;28.83;;
55114;SDS011;41010;53.252;5.786;2022-12-10T06:40:54;243.43;;;25.48;;
55114;SDS011;41010;53.252;5.786;2022-12-10T06:43:21;443.35;;;31.73;;
55114;SDS011;41010;53.252;5.786;2022-12-10T06:45:50;331.15;;;30.00;;
55114;SDS011;41010;53.252;5.786;2022-12-10T06:48:17;293.35;;;27.55;;
55114;SDS011;41010;53.252;5.786;2022-12-10T06:50:44;361.00;;;32.45;;
55114;SDS011;41010;53.252;5.786;2022-12-10T06:53:11;364.30;;;30.00;;
55114;SDS011;41010;53.252;5.786;2022-12-10T06:55:39;335.00;;;31.08;;
55114;SDS011;41010;53.252;5.786;2022-12-10T06:58:06;341.50;;;30.63;;
55114;SDS011;41010;53.252;5.786;2022-12-10T07:00:33;305.42;;;31.42;;
55114;SDS011;41010;53.252;5.786;2022-12-10T07:03:02;300.98;;;34.58;;
55114;SDS011;41010;53.252;5.786;2022-12-10T07:05:29;357.10;;;31.88;;
55114;SDS011;41010;53.252;5.786;2022-12-10T07:07:57;268.73;;;29.10;;
55114;SDS011;41010;53.252;5.786;2022-12-10T07:10:24;266.20;;;29.60;;
55114;SDS011;41010;53.252;5.786;2022-12-10T07:12:51;256.25;;;30.08;;
55114;SDS011;41010;53.252;5.786;2022-12-10T07:15:18;272.10;;;31.15;;
55114;SDS011;41010;53.252;5.786;2022-12-10T07:17:48;314.30;;;31.70;;
55114;SDS011;41010;53.252;5.786;2022-12-10T07:20:16;282.23;;;29.67;;
55114;SDS011;41010;53.252;5.786;2022-12-10T07:22:44;307.35;;;33.00;;
55114;SDS011;41010;53.252;5.786;2022-12-10T07:25:11;248.65;;;29.75;;
55114;SDS011;41010;53.252;5.786;2022-12-10T07:27:39;277.08;;;28.70;;
55114;SDS011;41010;53.252;5.786;2022-12-10T07:30:06;314.23;;;30.65;;
55114;SDS011;41010;53.252;5.786;2022-12-10T07:32:34;361.38;;;32.75;;
55114;SDS011;41010;53.252;5.786;2022-12-10T07:35:01;386.85;;;31.73;;
55114;SDS011;41010;53.252;5.786;2022-12-10T07:37:29;338.60;;;33.15;;
55114;SDS011;41010;53.252;5.786;2022-12-10T07:39:57;473.38;;;35.67;;
55114;SDS011;41010;53.252;5.786;2022-12-10T07:42:24;299.13;;;29.83;;
55114;SDS011;41010;53.252;5.786;2022-12-10T07:44:51;321.65;;;30.95;;
55114;SDS011;41010;53.252;5.786;2022-12-10T07:47:19;320.63;;;29.77;;
55114;SDS011;41010;53.252;5.786;2022-12-10T07:49:46;381.20;;;30.00;;
55114;SDS011;41010;53.252;5.786;2022-12-10T07:52:13;262.67;;;26.42;;
55114;SDS011;41010;53.252;5.786;2022-12-10T07:54:42;330.85;;;25.88;;
55114;SDS011;41010;53.252;5.786;2022-12-10T07:57:09;311.95;;;28.50;;
55114;SDS011;41010;53.252;5.786;2022-12-10T07:59:36;330.08;;;28.75;;
55114;SDS011;41010;53.252;5.786;2022-12-10T08:02:03;312.55;;;27.27;;
55114;SDS011;41010;53.252;5.786;2022-12-10T08:04:31;322.48;;;28.70;;
55114;SDS011;41010;53.252;5.786;2022-12-10T08:06:58;334.77;;;27.33;;
55114;SDS011;41010;53.252;5.786;2022-12-10T08:09:25;295.25;;;28.73;;
55114;SDS011;41010;53.252;5.786;2022-12-10T08:11:54;225.32;;;26.63;;
55114;SDS011;41010;53.252;5.786;2022-12-10T08:14:21;280.65;;;26.48;;
55114;SDS011;41010;53.252;5.786;2022-12-10T08:16:48;337.35;;;29.35;;
55114;SDS011;41010;53.252;5.786;2022-12-10T08:19:15;334.92;;;27.77;;
55114;SDS011;41010;53.252;5.786;2022-12-10T08:21:46;348.73;;;32.38;;
55114;SDS011;41010;53.252;5.786;2022-12-10T08:24:13;286.92;;;29.48;;
55114;SDS011;41010;53.252;5.786;2022-12-10T08:26:40;281.35;;;30.00;;
55114;SDS011;41010;53.252;5.786;2022-12-10T08:29:09;278.15;;;28.05;;
55114;SDS011;41010;53.252;5.786;2022-12-10T08:31:36;301.33;;;31.77;;
55114;SDS011;41010;53.252;5.786;2022-12-10T08:34:04;322.85;;;29.15;;
55114;SDS011;41010;53.252;5.786;2022-12-10T08:36:31;265.45;;;26.70;;
55114;SDS011;41010;53.252;5.786;2022-12-10T08:38:58;353.92;;;29.75;;
55114;SDS011;41010;53.252;5.786;2022-12-10T08:41:26;302.30;;;29.25;;
55114;SDS011;41010;53.252;5.786;2022-12-10T08:43:53;272.88;;;26.60;;
55114;SDS011;41010;53.252;5.786;2022-12-10T08:46:21;269.00;;;27.90;;
55114;SDS011;41010;53.252;5.786;2022-12-10T08:48:50;258.13;;;27.27;;
55114;SDS011;41010;53.252;5.786;2022-12-10T08:51:17;320.73;;;30.05;;
55114;SDS011;41010;53.252;5.786;2022-12-10T08:53:45;309.73;;;29.95;;
55114;SDS011;41010;53.252;5.786;2022-12-10T08:56:12;292.20;;;30.40;;
55114;SDS011;41010;53.252;5.786;2022-12-10T08:58:40;374.02;;;32.38;;
55114;SDS011;41010;53.252;5.786;2022-12-10T09:01:07;335.15;;;31.73;;
55114;SDS011;41010;53.252;5.786;2022-12-10T09:03:36;278.45;;;32.50;;
55114;SDS011;41010;53.252;5.786;2022-12-10T09:06:04;330.50;;;30.75;;
55114;SDS011;41010;53.252;5.786;2022-12-10T09:08:31;306.48;;;30.70;;
55114;SDS011;41010;53.252;5.786;2022-12-10T09:11:04;297.15;;;29.83;;
55114;SDS011;41010;53.252;5.786;2022-12-10T09:13:31;258.05;;;30.08;;
55114;SDS011;41010;53.252;5.786;2022-12-10T09:15:58;266.25;;;30.48;;
55114;SDS011;41010;53.252;5.786;2022-12-10T09:18:25;221.25;;;31.05;;
55114;SDS011;41010;53.252;5.786;2022-12-10T09:20:54;190.35;;;26.35;;
55114;SDS011;41010;53.252;5.786;2022-12-10T09:23:21;254.13;;;30.52;;
55114;SDS011;41010;53.252;5.786;2022-12-10T09:25:49;224.60;;;28.23;;
55114;SDS011;41010;53.252;5.786;2022-12-10T09:28:16;237.82;;;30.40;;
55114;SDS011;41010;53.252;5.786;2022-12-10T09:30:43;221.35;;;30.40;;
55114;SDS011;41010;53.252;5.786;2022-12-10T09:33:10;275.67;;;30.25;;
55114;SDS011;41010;53.252;5.786;2022-12-10T09:35:41;209.20;;;29.85;;
55114;SDS011;41010;53.252;5.786;2022-12-10T09:38:09;317.50;;;32.63;;
55114;SDS011;41010;53.252;5.786;2022-12-10T09:40:39;275.02;;;32.42;;
55114;SDS011;41010;53.252;5.786;2022-12-10T09:43:10;317.23;;;34.85;;
55114;SDS011;41010;53.252;5.786;2022-12-10T09:48:13;214.35;;;28.98;;
55114;SDS011;41010;53.252;5.786;2022-12-10T09:50:44;188.05;;;28.45;;
55114;SDS011;41010;53.252;5.786;2022-12-10T09:53:17;219.10;;;31.43;;
55114;SDS011;41010;53.252;5.786;2022-12-10T09:55:46;239.60;;;32.00;;
55114;SDS011;41010;53.252;5.786;2022-12-10T09:58:16;265.13;;;29.98;;
55114;SDS011;41010;53.252;5.786;2022-12-10T10:00:44;240.38;;;32.05;;
55114;SDS011;41010;53.252;5.786;2022-12-10T10:03:13;247.57;;;31.42;;
55114;SDS011;41010;53.252;5.786;2022-12-10T10:05:42;203.02;;;31.15;;
55114;SDS011;41010;53.252;5.786;2022-12-10T10:08:12;214.48;;;29.77;;
55114;SDS011;41010;53.252;5.786;2022-12-10T10:10:41;170.15;;;27.45;;
55114;SDS011;41010;53.252;5.786;2022-12-10T10:13:14;195.70;;;29.70;;
55114;SDS011;41010;53.252;5.786;2022-12-10T10:15:43;272.63;;;30.83;;
55114;SDS011;41010;53.252;5.786;2022-12-10T10:18:13;252.48;;;33.53;;
55114;SDS011;41010;53.252;5.786;2022-12-10T10:20:41;263.95;;;33.20;;
55114;SDS011;41010;53.252;5.786;2022-12-10T10:23:09;234.77;;;32.05;;
55114;SDS011;41010;53.252;5.786;2022-12-10T10:25:39;274.97;;;32.60;;
55114;SDS011;41010;53.252;5.786;2022-12-10T10:28:10;213.38;;;29.55;;
55114;SDS011;41010;53.252;5.786;2022-12-10T10:30:39;182.93;;;26.63;;
55114;SDS011;41010;53.252;5.786;2022-12-10T10:33:09;171.18;;;29.02;;
55114;SDS011;41010;53.252;5.786;2022-12-10T10:35:41;228.10;;;28.92;;
55114;SDS011;41010;53.252;5.786;2022-12-10T10:38:13;172.30;;;29.75;;
55114;SDS011;41010;53.252;5.786;2022-12-10T10:40:44;152.82;;;29.02;;
55114;SDS011;41010;53.252;5.786;2022-12-10T10:43:15;203.18;;;31.58;;
55114;SDS011;41010;53.252;5.786;2022-12-10T10:45:47;245.50;;;32.47;;
55114;SDS011;41010;53.252;5.786;2022-12-10T10:48:16;216.77;;;32.25;;
55114;SDS011;41010;53.252;5.786;2022-12-10T10:50:45;167.45;;;28.95;;
55114;SDS011;41010;53.252;5.786;2022-12-10T10:53:30;179.30;;;28.52;;
55114;SDS011;41010;53.252;5.786;2022-12-10T10:56:06;150.40;;;27.27;;
55114;SDS011;41010;53.252;5.786;2022-12-10T10:58:36;149.05;;;26.33;;
55114;SDS011;41010;53.252;5.786;2022-12-10T11:01:04;140.60;;;27.30;;
55114;SDS011;41010;53.252;5.786;2022-12-10T11:03:32;166.98;;;27.33;;
55114;SDS011;41010;53.252;5.786;2022-12-10T11:06:00;156.90;;;28.02;;
55114;SDS011;41010;53.252;5.786;2022-12-10T11:08:29;170.50;;;29.45;;
55114;SDS011;41010;53.252;5.786;2022-12-10T11:10:58;157.70;;;30.70;;
55114;SDS011;41010;53.252;5.786;2022-12-10T11:13:28;153.25;;;27.73;;
55114;SDS011;41010;53.252;5.786;2022-12-10T11:15:58;148.65;;;28.55;;
55114;SDS011;41010;53.252;5.786;2022-12-10T11:18:29;135.68;;;26.00;;
55114;SDS011;41010;53.252;5.786;2022-12-10T11:20:57;137.35;;;26.33;;
55114;SDS011;41010;53.252;5.786;2022-12-10T11:23:27;136.30;;;27.48;;
55114;SDS011;41010;53.252;5.786;2022-12-10T11:25:57;132.15;;;26.17;;
55114;SDS011;41010;53.252;5.786;2022-12-10T11:28:29;132.43;;;26.70;;
55114;SDS011;41010;53.252;5.786;2022-12-10T11:31:02;105.10;;;25.05;;
55114;SDS011;41010;53.252;5.786;2022-12-10T11:33:33;101.40;;;25.35;;
55114;SDS011;41010;53.252;5.786;2022-12-10T11:36:04;117.82;;;26.65;;
55114;SDS011;41010;53.252;5.786;2022-12-10T11:38:36;107.05;;;25.58;;
55114;SDS011;41010;53.252;5.786;2022-12-10T11:41:07;105.03;;;26.65;;
55114;SDS011;41010;53.252;5.786;2022-12-10T11:43:40;111.32;;;28.77;;
55114;SDS011;41010;53.252;5.786;2022-12-10T11:46:14;104.53;;;27.45;;
55114;SDS011;41010;53.252;5.786;2022-12-10T11:48:51;98.10;;;24.95;;
55114;SDS011;41010;53.252;5.786;2022-12-10T11:51:24;92.70;;;25.08;;
55114;SDS011;41010;53.252;5.786;2022-12-10T11:54:00;88.97;;;25.95;;
55114;SDS011;41010;53.252;5.786;2022-12-10T11:56:30;87.43;;;25.70;;
55114;SDS011;41010;53.252;5.786;2022-12-10T11:58:59;91.70;;;24.73;;
55114;SDS011;41010;53.252;5.786;2022-12-10T12:01:34;93.35;;;25.23;;
55114;SDS011;41010;53.252;5.786;2022-12-10T12:04:10;93.47;;;26.05;;
55114;SDS011;41010;53.252;5.786;2022-12-10T12:06:51;107.78;;;27.15;;
55114;SDS011;41010;53.252;5.786;2022-12-10T12:09:23;90.25;;;27.08;;
55114;SDS011;41010;53.252;5.786;2022-12-10T12:11:55;91.30;;;27.17;;
55114;SDS011;41010;53.252;5.786;2022-12-10T12:14:27;91.60;;;26.50;;
55114;SDS011;41010;53.252;5.786;2022-12-10T12:17:00;88.82;;;26.58;;
55114;SDS011;41010;53.252;5.786;2022-12-10T12:19:31;87.10;;;25.85;;
55114;SDS011;41010;53.252;5.786;2022-12-10T12:22:00;81.80;;;25.88;;
55114;SDS011;41010;53.252;5.786;2022-12-10T12:24:31;76.80;;;24.23;;
55114;SDS011;41010;53.252;5.786;2022-12-10T12:27:02;84.90;;;24.20;;
55114;SDS011;41010;53.252;5.786;2022-12-10T12:29:33;87.63;;;24.33;;
55114;SDS011;41010;53.252;5.786;2022-12-10T12:32:02;85.18;;;25.48;;
55114;SDS011;41010;53.252;5.786;2022-12-10T12:34:33;80.95;;;26.85;;
55114;SDS011;41010;53.252;5.786;2022-12-10T12:37:04;82.50;;;25.23;;
55114;SDS011;41010;53.252;5.786;2022-12-10T12:39:32;74.65;;;24.08;;
55114;SDS011;41010;53.252;5.786;2022-12-10T12:42:02;84.45;;;26.17;;
55114;SDS011;41010;53.252;5.786;2022-12-10T12:44:32;89.20;;;25.30;;
55114;SDS011;41010;53.252;5.786;2022-12-10T12:47:11;94.28;;;26.58;;
55114;SDS011;41010;53.252;5.786;2022-12-10T12:49:41;94.50;;;25.02;;
55114;SDS011;41010;53.252;5.786;2022-12-10T12:52:13;80.85;;;24.30;;
55114;SDS011;41010;53.252;5.786;2022-12-10T12:54:44;88.13;;;24.98;;
55114;SDS011;41010;53.252;5.786;2022-12-10T12:57:13;84.10;;;24.50;;
55114;SDS011;41010;53.252;5.786;2022-12-10T12:59:47;93.78;;;26.17;;
55114;SDS011;41010;53.252;5.786;2022-12-10T13:02:20;78.28;;;25.73;;
55114;SDS011;41010;53.252;5.786;2022-12-10T13:04:50;78.55;;;25.13;;
55114;SDS011;41010;53.252;5.786;2022-12-10T13:10:17;75.70;;;23.85;;
55114;SDS011;41010;53.252;5.786;2022-12-10T13:12:46;74.93;;;23.23;;
55114;SDS011;41010;53.252;5.786;2022-12-10T13:15:16;72.20;;;24.05;;
55114;SDS011;41010;53.252;5.786;2022-12-10T13:20:31;65.20;;;22.20;;
55114;SDS011;41010;53.252;5.786;2022-12-10T13:22:59;82.53;;;24.77;;
55114;SDS011;41010;53.252;5.786;2022-12-10T13:25:37;88.55;;;24.45;;
55114;SDS011;41010;53.252;5.786;2022-12-10T13:28:16;76.07;;;22.85;;
55114;SDS011;41010;53.252;5.786;2022-12-10T13:30:43;80.40;;;24.17;;
55114;SDS011;41010;53.252;5.786;2022-12-10T13:33:43;80.30;;;24.30;;
55114;SDS011;41010;53.252;5.786;2022-12-10T13:36:12;75.85;;;24.33;;
55114;SDS011;41010;53.252;5.786;2022-12-10T13:38:40;84.88;;;24.10;;
55114;SDS011;41010;53.252;5.786;2022-12-10T13:41:08;91.38;;;24.95;;
55114;SDS011;41010;53.252;5.786;2022-12-10T13:43:54;87.72;;;24.85;;
55114;SDS011;41010;53.252;5.786;2022-12-10T13:49:22;94.47;;;25.30;;
55114;SDS011;41010;53.252;5.786;2022-12-10T13:51:54;86.40;;;25.30;;
55114;SDS011;41010;53.252;5.786;2022-12-10T13:54:34;71.57;;;23.55;;
55114;SDS011;41010;53.252;5.786;2022-12-10T13:57:07;68.03;;;21.85;;
55114;SDS011;41010;53.252;5.786;2022-12-10T13:59:39;65.20;;;21.45;;
55114;SDS011;41010;53.252;5.786;2022-12-10T14:02:22;79.35;;;23.65;;
55114;SDS011;41010;53.252;5.786;2022-12-10T14:04:58;84.63;;;24.45;;
55114;SDS011;41010;53.252;5.786;2022-12-10T14:07:31;84.40;;;24.63;;
55114;SDS011;41010;53.252;5.786;2022-12-10T14:09:59;83.63;;;24.27;;
55114;SDS011;41010;53.252;5.786;2022-12-10T14:12:28;81.13;;;24.70;;
55114;SDS011;41010;53.252;5.786;2022-12-10T14:14:58;87.85;;;23.45;;
55114;SDS011;41010;53.252;5.786;2022-12-10T14:17:30;79.25;;;24.30;;
55114;SDS011;41010;53.252;5.786;2022-12-10T14:19:58;88.82;;;25.70;;
55114;SDS011;41010;53.252;5.786;2022-12-10T14:22:28;73.97;;;22.73;;
55114;SDS011;41010;53.252;5.786;2022-12-10T14:25:00;82.18;;;21.75;;
55114;SDS011;41010;53.252;5.786;2022-12-10T14:27:28;73.00;;;22.55;;
55114;SDS011;41010;53.252;5.786;2022-12-10T14:29:58;77.95;;;23.38;;
55114;SDS011;41010;53.252;5.786;2022-12-10T14:32:27;98.40;;;24.63;;
55114;SDS011;41010;53.252;5.786;2022-12-10T14:34:56;85.72;;;23.33;;